sensor_id;sensor_type;location;lat;lon;timestamp;P1;durP1;ratioP1;P2;durP2;ratioP2
10260;SDS011;5175;42.606;23.388;2023-02-15T00:00:17;24.87;;;17.27;;
10260;SDS011;5175;42.606;23.388;2023-02-15T00:02:44;23.93;;;16.93;;
10260;SDS011;5175;42.606;23.388;2023-02-15T00:05:11;33.90;;;24.63;;
10260;SDS011;5175;42.606;23.388;2023-02-15T00:07:38;33.53;;;23.77;;
10260;SDS011;5175;42.606;23.388;2023-02-15T00:10:06;34.00;;;24.83;;
10260;SDS011;5175;42.606;23.388;2023-02-15T00:12:34;32.37;;;24.70;;
10260;SDS011;5175;42.606;23.388;2023-02-15T00:15:02;31.23;;;22.73;;
10260;SDS011;5175;42.606;23.388;2023-02-15T00:17:29;31.87;;;24.43;;
10260;SDS011;5175;42.606;23.388;2023-02-15T00:19:56;31.33;;;23.33;;
10260;SDS011;5175;42.606;23.388;2023-02-15T00:22:23;31.93;;;24.33;;
10260;SDS011;5175;42.606;23.388;2023-02-15T00:24:51;31.83;;;23.23;;
10260;SDS011;5175;42.606;23.388;2023-02-15T00:27:18;26.17;;;18.90;;
10260;SDS011;5175;42.606;23.388;2023-02-15T00:29:46;31.63;;;22.50;;
10260;SDS011;5175;42.606;23.388;2023-02-15T00:32:15;27.20;;;18.90;;
10260;SDS011;5175;42.606;23.388;2023-02-15T00:34:41;30.33;;;22.17;;
10260;SDS011;5175;42.606;23.388;2023-02-15T00:37:08;32.67;;;23.30;;
10260;SDS011;5175;42.606;23.388;2023-02-15T00:39:35;31.43;;;23.07;;
10260;SDS011;5175;42.606;23.388;2023-02-15T00:42:02;28.40;;;18.37;;
10260;SDS011;5175;42.606;23.388;2023-02-15T00:44:29;32.03;;;23.83;;
10260;SDS011;5175;42.606;23.388;2023-02-15T00:46:55;30.83;;;23.53;;
10260;SDS011;5175;42.606;23.388;2023-02-15T00:49:23;31.63;;;22.70;;
10260;SDS011;5175;42.606;23.388;2023-02-15T00:51:50;29.67;;;22.80;;
10260;SDS011;5175;42.606;23.388;2023-02-15T00:54:17;30.67;;;21.37;;
10260;SDS011;5175;42.606;23.388;2023-02-15T00:56:44;30.13;;;23.03;;
10260;SDS011;5175;42.606;23.388;2023-02-15T00:59:11;31.10;;;21.03;;
10260;SDS011;5175;42.606;23.388;2023-02-15T01:01:38;30.20;;;22.10;;
10260;SDS011;5175;42.606;23.388;2023-02-15T01:04:04;30.67;;;22.73;;
10260;SDS011;5175;42.606;23.388;2023-02-15T01:06:33;27.47;;;18.83;;
10260;SDS011;5175;42.606;23.388;2023-02-15T01:08:59;32.50;;;23.47;;
10260;SDS011;5175;42.606;23.388;2023-02-15T01:11:26;30.90;;;22.37;;
10260;SDS011;5175;42.606;23.388;2023-02-15T01:13:54;32.37;;;23.50;;
10260;SDS011;5175;42.606;23.388;2023-02-15T01:16:22;30.40;;;23.00;;
10260;SDS011;5175;42.606;23.388;2023-02-15T01:18:51;30.90;;;22.87;;
10260;SDS011;5175;42.606;23.388;2023-02-15T01:21:21;30.63;;;23.27;;
10260;SDS011;5175;42.606;23.388;2023-02-15T01:23:51;29.67;;;22.67;;
10260;SDS011;5175;42.606;23.388;2023-02-15T01:26:18;30.57;;;23.23;;
10260;SDS011;5175;42.606;23.388;2023-02-15T01:28:45;31.73;;;23.03;;
10260;SDS011;5175;42.606;23.388;2023-02-15T01:31:12;29.67;;;21.93;;
10260;SDS011;5175;42.606;23.388;2023-02-15T01:33:40;22.57;;;16.77;;
10260;SDS011;5175;42.606;23.388;2023-02-15T01:36:08;30.93;;;22.50;;
10260;SDS011;5175;42.606;23.388;2023-02-15T01:38:34;21.50;;;14.30;;
10260;SDS011;5175;42.606;23.388;2023-02-15T01:41:03;28.90;;;22.60;;
10260;SDS011;5175;42.606;23.388;2023-02-15T01:43:48;30.80;;;23.07;;
10260;SDS011;5175;42.606;23.388;2023-02-15T01:46:16;31.00;;;23.17;;
10260;SDS011;5175;42.606;23.388;2023-02-15T01:48:46;30.63;;;22.23;;
10260;SDS011;5175;42.606;23.388;2023-02-15T01:51:16;27.10;;;18.90;;
10260;SDS011;5175;42.606;23.388;2023-02-15T01:53:55;30.10;;;22.20;;
10260;SDS011;5175;42.606;23.388;2023-02-15T01:56:28;30.07;;;21.97;;
10260;SDS011;5175;42.606;23.388;2023-02-15T01:58:57;29.43;;;22.23;;
10260;SDS011;5175;42.606;23.388;2023-02-15T02:01:28;28.60;;;20.57;;
10260;SDS011;5175;42.606;23.388;2023-02-15T02:03:56;28.93;;;21.60;;
10260;SDS011;5175;42.606;23.388;2023-02-15T02:06:28;30.33;;;21.87;;
10260;SDS011;5175;42.606;23.388;2023-02-15T02:08:55;31.20;;;22.80;;
10260;SDS011;5175;42.606;23.388;2023-02-15T02:11:23;30.43;;;22.80;;
10260;SDS011;5175;42.606;23.388;2023-02-15T02:13:51;27.80;;;20.97;;
10260;SDS011;5175;42.606;23.388;2023-02-15T02:16:22;30.43;;;21.77;;
10260;SDS011;5175;42.606;23.388;2023-02-15T02:18:58;30.00;;;22.73;;
10260;SDS011;5175;42.606;23.388;2023-02-15T02:25:09;29.47;;;22.27;;
10260;SDS011;5175;42.606;23.388;2023-02-15T02:27:46;28.93;;;20.93;;
10260;SDS011;5175;42.606;23.388;2023-02-15T02:30:32;28.20;;;21.73;;
10260;SDS011;5175;42.606;23.388;2023-02-15T02:33:21;27.37;;;21.83;;
10260;SDS011;5175;42.606;23.388;2023-02-15T02:36:00;27.93;;;20.93;;
10260;SDS011;5175;42.606;23.388;2023-02-15T02:38:37;28.77;;;21.77;;
10260;SDS011;5175;42.606;23.388;2023-02-15T02:41:16;29.53;;;22.37;;
10260;SDS011;5175;42.606;23.388;2023-02-15T02:43:48;30.33;;;21.50;;
10260;SDS011;5175;42.606;23.388;2023-02-15T02:46:22;27.23;;;21.50;;
10260;SDS011;5175;42.606;23.388;2023-02-15T02:48:54;27.07;;;20.80;;
10260;SDS011;5175;42.606;23.388;2023-02-15T02:51:21;29.97;;;21.33;;
10260;SDS011;5175;42.606;23.388;2023-02-15T02:53:50;28.20;;;21.17;;
10260;SDS011;5175;42.606;23.388;2023-02-15T02:56:21;28.83;;;21.13;;
10260;SDS011;5175;42.606;23.388;2023-02-15T02:58:55;26.50;;;20.80;;
10260;SDS011;5175;42.606;23.388;2023-02-15T03:01:27;28.00;;;21.27;;
10260;SDS011;5175;42.606;23.388;2023-02-15T03:04:00;27.83;;;21.07;;
10260;SDS011;5175;42.606;23.388;2023-02-15T03:06:35;26.50;;;20.57;;
10260;SDS011;5175;42.606;23.388;2023-02-15T03:09:08;28.10;;;21.80;;
10260;SDS011;5175;42.606;23.388;2023-02-15T03:11:41;27.47;;;20.10;;
10260;SDS011;5175;42.606;23.388;2023-02-15T03:14:10;29.03;;;21.13;;
10260;SDS011;5175;42.606;23.388;2023-02-15T03:16:39;28.57;;;20.53;;
10260;SDS011;5175;42.606;23.388;2023-02-15T03:19:09;26.97;;;20.37;;
10260;SDS011;5175;42.606;23.388;2023-02-15T03:21:40;27.80;;;20.83;;
10260;SDS011;5175;42.606;23.388;2023-02-15T03:24:23;24.73;;;19.50;;
10260;SDS011;5175;42.606;23.388;2023-02-15T03:26:54;26.87;;;20.23;;
10260;SDS011;5175;42.606;23.388;2023-02-15T03:29:25;26.03;;;19.77;;
10260;SDS011;5175;42.606;23.388;2023-02-15T03:31:54;24.17;;;19.10;;
10260;SDS011;5175;42.606;23.388;2023-02-15T03:34:27;24.67;;;19.90;;
10260;SDS011;5175;42.606;23.388;2023-02-15T03:36:56;25.80;;;19.63;;
10260;SDS011;5175;42.606;23.388;2023-02-15T03:39:30;24.20;;;18.63;;
10260;SDS011;5175;42.606;23.388;2023-02-15T03:42:03;25.10;;;18.63;;
10260;SDS011;5175;42.606;23.388;2023-02-15T03:44:38;24.50;;;19.47;;
10260;SDS011;5175;42.606;23.388;2023-02-15T03:47:13;26.20;;;20.37;;
10260;SDS011;5175;42.606;23.388;2023-02-15T03:49:44;24.23;;;19.33;;
10260;SDS011;5175;42.606;23.388;2023-02-15T03:52:16;26.27;;;19.80;;
10260;SDS011;5175;42.606;23.388;2023-02-15T03:54:45;26.00;;;19.00;;
10260;SDS011;5175;42.606;23.388;2023-02-15T03:57:14;23.33;;;18.73;;
10260;SDS011;5175;42.606;23.388;2023-02-15T04:00:02;26.73;;;19.73;;
10260;SDS011;5175;42.606;23.388;2023-02-15T04:02:48;24.03;;;18.53;;
10260;SDS011;5175;42.606;23.388;2023-02-15T04:05:33;24.13;;;18.93;;
10260;SDS011;5175;42.606;23.388;2023-02-15T04:08:00;23.67;;;18.50;;
10260;SDS011;5175;42.606;23.388;2023-02-15T04:10:27;26.63;;;19.60;;
10260;SDS011;5175;42.606;23.388;2023-02-15T04:13:11;22.97;;;18.57;;
10260;SDS011;5175;42.606;23.388;2023-02-15T04:15:38;24.00;;;18.50;;
10260;SDS011;5175;42.606;23.388;2023-02-15T04:18:22;25.43;;;20.23;;
10260;SDS011;5175;42.606;23.388;2023-02-15T04:21:08;25.00;;;19.00;;
10260;SDS011;5175;42.606;23.388;2023-02-15T04:23:52;22.53;;;17.87;;
10260;SDS011;5175;42.606;23.388;2023-02-15T04:26:36;27.83;;;20.93;;
10260;SDS011;5175;42.606;23.388;2023-02-15T04:29:03;27.43;;;20.00;;
10260;SDS011;5175;42.606;23.388;2023-02-15T04:31:30;26.50;;;19.57;;
10260;SDS011;5175;42.606;23.388;2023-02-15T04:33:57;27.10;;;20.87;;
10260;SDS011;5175;42.606;23.388;2023-02-15T04:36:25;25.37;;;19.43;;
10260;SDS011;5175;42.606;23.388;2023-02-15T04:38:52;26.73;;;19.60;;
10260;SDS011;5175;42.606;23.388;2023-02-15T04:41:19;25.70;;;19.50;;
10260;SDS011;5175;42.606;23.388;2023-02-15T04:43:46;26.10;;;19.77;;
10260;SDS011;5175;42.606;23.388;2023-02-15T04:46:12;28.20;;;21.30;;
10260;SDS011;5175;42.606;23.388;2023-02-15T04:48:39;31.00;;;21.57;;
10260;SDS011;5175;42.606;23.388;2023-02-15T04:51:06;43.73;;;29.73;;
10260;SDS011;5175;42.606;23.388;2023-02-15T04:53:35;25.47;;;19.70;;
10260;SDS011;5175;42.606;23.388;2023-02-15T04:56:02;25.83;;;20.17;;
10260;SDS011;5175;42.606;23.388;2023-02-15T04:58:29;26.67;;;20.77;;
10260;SDS011;5175;42.606;23.388;2023-02-15T05:00:56;26.67;;;20.37;;
10260;SDS011;5175;42.606;23.388;2023-02-15T05:03:24;29.03;;;21.73;;
10260;SDS011;5175;42.606;23.388;2023-02-15T05:05:51;26.13;;;20.43;;
10260;SDS011;5175;42.606;23.388;2023-02-15T05:08:18;24.70;;;19.10;;
10260;SDS011;5175;42.606;23.388;2023-02-15T05:10:48;25.67;;;19.90;;
10260;SDS011;5175;42.606;23.388;2023-02-15T05:13:15;26.20;;;19.90;;
10260;SDS011;5175;42.606;23.388;2023-02-15T05:15:46;25.17;;;19.83;;
10260;SDS011;5175;42.606;23.388;2023-02-15T05:18:13;23.77;;;18.60;;
10260;SDS011;5175;42.606;23.388;2023-02-15T05:20:40;24.57;;;19.57;;
10260;SDS011;5175;42.606;23.388;2023-02-15T05:23:07;26.63;;;19.93;;
10260;SDS011;5175;42.606;23.388;2023-02-15T05:25:34;26.57;;;20.70;;
10260;SDS011;5175;42.606;23.388;2023-02-15T05:28:26;29.40;;;21.07;;
10260;SDS011;5175;42.606;23.388;2023-02-15T05:30:59;23.30;;;19.27;;
10260;SDS011;5175;42.606;23.388;2023-02-15T05:33:30;26.37;;;20.83;;
10260;SDS011;5175;42.606;23.388;2023-02-15T05:35:57;27.50;;;20.63;;
10260;SDS011;5175;42.606;23.388;2023-02-15T05:38:24;28.17;;;20.73;;
10260;SDS011;5175;42.606;23.388;2023-02-15T05:40:51;27.83;;;20.67;;
10260;SDS011;5175;42.606;23.388;2023-02-15T05:43:18;27.20;;;20.57;;
10260;SDS011;5175;42.606;23.388;2023-02-15T05:45:47;28.03;;;21.17;;
10260;SDS011;5175;42.606;23.388;2023-02-15T05:48:14;26.57;;;21.33;;
10260;SDS011;5175;42.606;23.388;2023-02-15T05:50:41;26.97;;;20.10;;
10260;SDS011;5175;42.606;23.388;2023-02-15T05:53:09;24.40;;;19.27;;
10260;SDS011;5175;42.606;23.388;2023-02-15T05:55:37;28.07;;;20.27;;
10260;SDS011;5175;42.606;23.388;2023-02-15T05:58:03;27.77;;;20.63;;
10260;SDS011;5175;42.606;23.388;2023-02-15T06:00:31;25.10;;;20.07;;
10260;SDS011;5175;42.606;23.388;2023-02-15T06:02:59;24.50;;;19.97;;
10260;SDS011;5175;42.606;23.388;2023-02-15T06:05:26;25.80;;;20.40;;
10260;SDS011;5175;42.606;23.388;2023-02-15T06:07:53;26.27;;;19.43;;
10260;SDS011;5175;42.606;23.388;2023-02-15T06:10:19;27.30;;;19.83;;
10260;SDS011;5175;42.606;23.388;2023-02-15T06:12:46;26.40;;;20.00;;
10260;SDS011;5175;42.606;23.388;2023-02-15T06:15:13;26.47;;;20.30;;
10260;SDS011;5175;42.606;23.388;2023-02-15T06:17:40;28.73;;;21.53;;
10260;SDS011;5175;42.606;23.388;2023-02-15T06:20:09;27.53;;;20.73;;
10260;SDS011;5175;42.606;23.388;2023-02-15T06:22:37;28.47;;;20.47;;
10260;SDS011;5175;42.606;23.388;2023-02-15T06:25:04;25.13;;;19.80;;
10260;SDS011;5175;42.606;23.388;2023-02-15T06:27:34;25.30;;;19.67;;
10260;SDS011;5175;42.606;23.388;2023-02-15T06:30:01;26.83;;;20.37;;
10260;SDS011;5175;42.606;23.388;2023-02-15T06:32:29;24.77;;;19.47;;
10260;SDS011;5175;42.606;23.388;2023-02-15T06:34:56;25.17;;;18.77;;
10260;SDS011;5175;42.606;23.388;2023-02-15T06:37:24;24.73;;;19.03;;
10260;SDS011;5175;42.606;23.388;2023-02-15T06:39:51;25.10;;;19.43;;
10260;SDS011;5175;42.606;23.388;2023-02-15T06:42:18;26.10;;;19.73;;
10260;SDS011;5175;42.606;23.388;2023-02-15T06:44:45;27.23;;;19.20;;
10260;SDS011;5175;42.606;23.388;2023-02-15T06:47:12;24.73;;;19.50;;
10260;SDS011;5175;42.606;23.388;2023-02-15T06:49:38;26.37;;;19.60;;
10260;SDS011;5175;42.606;23.388;2023-02-15T06:52:05;27.53;;;20.63;;
10260;SDS011;5175;42.606;23.388;2023-02-15T06:54:34;28.77;;;20.53;;
10260;SDS011;5175;42.606;23.388;2023-02-15T06:57:01;25.03;;;18.57;;
10260;SDS011;5175;42.606;23.388;2023-02-15T06:59:28;22.63;;;17.10;;
10260;SDS011;5175;42.606;23.388;2023-02-15T07:01:54;24.40;;;19.17;;
10260;SDS011;5175;42.606;23.388;2023-02-15T07:04:21;23.93;;;17.63;;
10260;SDS011;5175;42.606;23.388;2023-02-15T07:06:48;21.93;;;17.20;;
10260;SDS011;5175;42.606;23.388;2023-02-15T07:09:15;20.80;;;17.37;;
10260;SDS011;5175;42.606;23.388;2023-02-15T07:11:43;21.37;;;16.23;;
10260;SDS011;5175;42.606;23.388;2023-02-15T07:14:27;19.47;;;14.87;;
10260;SDS011;5175;42.606;23.388;2023-02-15T07:16:54;22.97;;;15.37;;
10260;SDS011;5175;42.606;23.388;2023-02-15T07:19:21;22.03;;;17.10;;
10260;SDS011;5175;42.606;23.388;2023-02-15T07:21:48;22.10;;;17.20;;
10260;SDS011;5175;42.606;23.388;2023-02-15T07:24:14;20.97;;;16.67;;
10260;SDS011;5175;42.606;23.388;2023-02-15T07:26:41;22.10;;;16.70;;
10260;SDS011;5175;42.606;23.388;2023-02-15T07:29:09;19.60;;;15.73;;
10260;SDS011;5175;42.606;23.388;2023-02-15T07:31:36;22.70;;;16.50;;
10260;SDS011;5175;42.606;23.388;2023-02-15T07:34:05;21.40;;;16.47;;
10260;SDS011;5175;42.606;23.388;2023-02-15T07:36:31;19.13;;;15.97;;
10260;SDS011;5175;42.606;23.388;2023-02-15T07:38:58;18.67;;;15.77;;
10260;SDS011;5175;42.606;23.388;2023-02-15T07:41:25;17.83;;;14.53;;
10260;SDS011;5175;42.606;23.388;2023-02-15T07:43:52;19.93;;;15.50;;
10260;SDS011;5175;42.606;23.388;2023-02-15T07:46:20;21.27;;;16.03;;
10260;SDS011;5175;42.606;23.388;2023-02-15T07:48:47;18.20;;;14.87;;
10260;SDS011;5175;42.606;23.388;2023-02-15T07:51:14;17.87;;;14.47;;
10260;SDS011;5175;42.606;23.388;2023-02-15T07:53:41;22.50;;;15.73;;
10260;SDS011;5175;42.606;23.388;2023-02-15T07:56:09;17.60;;;14.57;;
10260;SDS011;5175;42.606;23.388;2023-02-15T07:58:37;19.23;;;14.93;;
10260;SDS011;5175;42.606;23.388;2023-02-15T08:01:17;18.20;;;14.60;;
10260;SDS011;5175;42.606;23.388;2023-02-15T08:03:46;17.93;;;14.13;;
10260;SDS011;5175;42.606;23.388;2023-02-15T08:06:12;18.20;;;13.67;;
10260;SDS011;5175;42.606;23.388;2023-02-15T08:08:39;17.27;;;14.27;;
10260;SDS011;5175;42.606;23.388;2023-02-15T08:11:07;16.37;;;13.07;;
10260;SDS011;5175;42.606;23.388;2023-02-15T08:14:02;16.03;;;13.07;;
10260;SDS011;5175;42.606;23.388;2023-02-15T08:16:32;16.17;;;11.50;;
10260;SDS011;5175;42.606;23.388;2023-02-15T08:19:03;16.60;;;12.93;;
10260;SDS011;5175;42.606;23.388;2023-02-15T08:21:32;14.17;;;12.10;;
10260;SDS011;5175;42.606;23.388;2023-02-15T08:24:00;15.30;;;13.67;;
10260;SDS011;5175;42.606;23.388;2023-02-15T08:26:28;14.07;;;10.90;;
10260;SDS011;5175;42.606;23.388;2023-02-15T08:28:55;12.27;;;8.80;;
10260;SDS011;5175;42.606;23.388;2023-02-15T08:31:23;13.20;;;8.70;;
10260;SDS011;5175;42.606;23.388;2023-02-15T08:33:50;14.87;;;12.00;;
10260;SDS011;5175;42.606;23.388;2023-02-15T08:36:21;13.37;;;11.77;;
10260;SDS011;5175;42.606;23.388;2023-02-15T08:38:48;15.57;;;12.63;;
10260;SDS011;5175;42.606;23.388;2023-02-15T08:41:16;16.83;;;12.97;;
10260;SDS011;5175;42.606;23.388;2023-02-15T08:43:45;16.43;;;13.30;;
10260;SDS011;5175;42.606;23.388;2023-02-15T08:46:14;14.80;;;11.67;;
10260;SDS011;5175;42.606;23.388;2023-02-15T08:48:42;16.30;;;12.80;;
10260;SDS011;5175;42.606;23.388;2023-02-15T08:51:10;15.43;;;13.00;;
10260;SDS011;5175;42.606;23.388;2023-02-15T08:53:40;17.37;;;13.03;;
10260;SDS011;5175;42.606;23.388;2023-02-15T08:56:09;16.33;;;13.37;;
10260;SDS011;5175;42.606;23.388;2023-02-15T08:58:36;17.20;;;13.67;;
10260;SDS011;5175;42.606;23.388;2023-02-15T09:01:08;15.70;;;12.33;;
10260;SDS011;5175;42.606;23.388;2023-02-15T09:03:36;17.43;;;13.43;;
10260;SDS011;5175;42.606;23.388;2023-02-15T09:06:02;16.93;;;13.70;;
10260;SDS011;5175;42.606;23.388;2023-02-15T09:08:30;16.77;;;13.73;;
10260;SDS011;5175;42.606;23.388;2023-02-15T09:11:05;16.23;;;13.33;;
10260;SDS011;5175;42.606;23.388;2023-02-15T09:13:33;13.63;;;10.43;;
10260;SDS011;5175;42.606;23.388;2023-02-15T09:16:01;17.90;;;13.80;;
10260;SDS011;5175;42.606;23.388;2023-02-15T09:18:29;18.43;;;15.10;;
10260;SDS011;5175;42.606;23.388;2023-02-15T09:21:03;21.00;;;13.67;;
10260;SDS011;5175;42.606;23.388;2023-02-15T09:23:30;15.57;;;13.90;;
10260;SDS011;5175;42.606;23.388;2023-02-15T09:26:01;18.27;;;13.80;;
10260;SDS011;5175;42.606;23.388;2023-02-15T09:28:30;16.10;;;9.97;;
10260;SDS011;5175;42.606;23.388;2023-02-15T09:31:04;17.60;;;15.07;;
10260;SDS011;5175;42.606;23.388;2023-02-15T09:33:35;20.13;;;15.60;;
10260;SDS011;5175;42.606;23.388;2023-02-15T09:36:04;18.73;;;15.40;;
10260;SDS011;5175;42.606;23.388;2023-02-15T09:38:32;18.37;;;14.93;;
10260;SDS011;5175;42.606;23.388;2023-02-15T09:41:03;18.37;;;15.23;;
10260;SDS011;5175;42.606;23.388;2023-02-15T09:43:44;18.47;;;15.00;;
10260;SDS011;5175;42.606;23.388;2023-02-15T09:46:28;20.50;;;15.90;;
10260;SDS011;5175;42.606;23.388;2023-02-15T09:49:03;19.33;;;15.67;;
10260;SDS011;5175;42.606;23.388;2023-02-15T09:54:40;12.63;;;9.07;;
10260;SDS011;5175;42.606;23.388;2023-02-15T09:57:20;19.07;;;14.57;;
10260;SDS011;5175;42.606;23.388;2023-02-15T09:59:59;21.67;;;17.23;;
10260;SDS011;5175;42.606;23.388;2023-02-15T10:02:35;19.63;;;15.93;;
10260;SDS011;5175;42.606;23.388;2023-02-15T10:05:19;22.47;;;16.77;;
10260;SDS011;5175;42.606;23.388;2023-02-15T10:08:11;18.03;;;13.33;;
10260;SDS011;5175;42.606;23.388;2023-02-15T10:10:54;19.33;;;14.80;;
10260;SDS011;5175;42.606;23.388;2023-02-15T10:13:50;18.50;;;15.27;;
10260;SDS011;5175;42.606;23.388;2023-02-15T10:16:26;17.87;;;14.93;;
10260;SDS011;5175;42.606;23.388;2023-02-15T10:19:02;19.57;;;16.37;;
10260;SDS011;5175;42.606;23.388;2023-02-15T10:21:39;22.33;;;18.10;;
10260;SDS011;5175;42.606;23.388;2023-02-15T10:24:22;17.00;;;12.87;;
10260;SDS011;5175;42.606;23.388;2023-02-15T10:27:01;20.83;;;16.87;;
10260;SDS011;5175;42.606;23.388;2023-02-15T10:29:34;19.93;;;16.33;;
10260;SDS011;5175;42.606;23.388;2023-02-15T10:32:08;20.03;;;17.10;;
10260;SDS011;5175;42.606;23.388;2023-02-15T10:34:50;20.10;;;17.03;;
10260;SDS011;5175;42.606;23.388;2023-02-15T10:40:28;21.47;;;16.70;;
10260;SDS011;5175;42.606;23.388;2023-02-15T10:43:08;21.17;;;17.60;;
10260;SDS011;5175;42.606;23.388;2023-02-15T10:45:48;20.93;;;16.70;;
10260;SDS011;5175;42.606;23.388;2023-02-15T10:48:25;19.70;;;17.27;;
10260;SDS011;5175;42.606;23.388;2023-02-15T10:51:10;21.13;;;16.07;;
10260;SDS011;5175;42.606;23.388;2023-02-15T10:56:34;19.30;;;15.97;;
10260;SDS011;5175;42.606;23.388;2023-02-15T10:59:14;18.07;;;15.63;;
10260;SDS011;5175;42.606;23.388;2023-02-15T11:02:06;19.70;;;16.63;;
10260;SDS011;5175;42.606;23.388;2023-02-15T11:04:47;20.63;;;17.53;;
10260;SDS011;5175;42.606;23.388;2023-02-15T11:07:20;19.83;;;16.67;;
10260;SDS011;5175;42.606;23.388;2023-02-15T11:09:50;19.67;;;17.10;;
10260;SDS011;5175;42.606;23.388;2023-02-15T11:12:22;19.37;;;16.80;;
10260;SDS011;5175;42.606;23.388;2023-02-15T11:14:55;19.80;;;17.17;;
10260;SDS011;5175;42.606;23.388;2023-02-15T11:17:28;22.20;;;17.83;;
10260;SDS011;5175;42.606;23.388;2023-02-15T11:20:04;21.33;;;17.27;;
10260;SDS011;5175;42.606;23.388;2023-02-15T11:22:41;22.40;;;17.30;;
10260;SDS011;5175;42.606;23.388;2023-02-15T11:25:14;19.00;;;14.93;;
10260;SDS011;5175;42.606;23.388;2023-02-15T11:27:45;23.27;;;18.03;;
10260;SDS011;5175;42.606;23.388;2023-02-15T11:30:15;20.77;;;18.03;;
10260;SDS011;5175;42.606;23.388;2023-02-15T11:32:46;21.27;;;18.97;;
10260;SDS011;5175;42.606;23.388;2023-02-15T11:35:19;20.20;;;17.50;;
10260;SDS011;5175;42.606;23.388;2023-02-15T11:37:51;20.40;;;17.83;;
10260;SDS011;5175;42.606;23.388;2023-02-15T11:40:24;20.50;;;17.93;;
10260;SDS011;5175;42.606;23.388;2023-02-15T11:42:55;20.93;;;18.67;;
10260;SDS011;5175;42.606;23.388;2023-02-15T11:45:26;22.60;;;17.77;;
10260;SDS011;5175;42.606;23.388;2023-02-15T11:47:54;22.23;;;17.73;;
10260;SDS011;5175;42.606;23.388;2023-02-15T11:50:24;22.30;;;18.27;;
10260;SDS011;5175;42.606;23.388;2023-02-15T11:52:58;22.40;;;19.73;;
10260;SDS011;5175;42.606;23.388;2023-02-15T11:55:28;20.47;;;18.23;;
10260;SDS011;5175;42.606;23.388;2023-02-15T11:57:57;20.73;;;18.00;;
10260;SDS011;5175;42.606;23.388;2023-02-15T12:00:32;20.33;;;17.60;;
10260;SDS011;5175;42.606;23.388;2023-02-15T12:03:11;20.57;;;18.37;;
10260;SDS011;5175;42.606;23.388;2023-02-15T12:05:44;20.30;;;18.10;;
10260;SDS011;5175;42.606;23.388;2023-02-15T12:08:17;21.30;;;17.90;;
10260;SDS011;5175;42.606;23.388;2023-02-15T12:13:30;21.20;;;17.97;;
10260;SDS011;5175;42.606;23.388;2023-02-15T12:15:57;20.30;;;18.10;;
10260;SDS011;5175;42.606;23.388;2023-02-15T12:18:34;21.47;;;18.40;;
10260;SDS011;5175;42.606;23.388;2023-02-15T12:21:07;21.67;;;16.63;;
10260;SDS011;5175;42.606;23.388;2023-02-15T12:23:39;23.13;;;17.80;;
10260;SDS011;5175;42.606;23.388;2023-02-15T12:26:11;21.33;;;18.57;;
10260;SDS011;5175;42.606;23.388;2023-02-15T12:28:40;23.77;;;19.23;;
10260;SDS011;5175;42.606;23.388;2023-02-15T12:31:10;21.90;;;18.57;;
10260;SDS011;5175;42.606;23.388;2023-02-15T12:33:47;22.17;;;17.97;;
10260;SDS011;5175;42.606;23.388;2023-02-15T12:36:18;20.90;;;18.17;;
10260;SDS011;5175;42.606;23.388;2023-02-15T12:39:02;20.83;;;17.90;;
10260;SDS011;5175;42.606;23.388;2023-02-15T12:41:30;21.27;;;17.73;;
10260;SDS011;5175;42.606;23.388;2023-02-15T12:44:04;21.17;;;18.20;;
10260;SDS011;5175;42.606;23.388;2023-02-15T12:46:33;22.00;;;18.53;;
10260;SDS011;5175;42.606;23.388;2023-02-15T12:49:07;21.50;;;19.13;;
10260;SDS011;5175;42.606;23.388;2023-02-15T12:51:46;21.33;;;17.50;;
10260;SDS011;5175;42.606;23.388;2023-02-15T12:57:14;21.37;;;19.03;;
10260;SDS011;5175;42.606;23.388;2023-02-15T12:59:48;22.90;;;19.23;;
10260;SDS011;5175;42.606;23.388;2023-02-15T13:02:19;21.47;;;18.90;;
10260;SDS011;5175;42.606;23.388;2023-02-15T13:04:49;21.00;;;18.70;;
10260;SDS011;5175;42.606;23.388;2023-02-15T13:07:18;22.70;;;19.20;;
10260;SDS011;5175;42.606;23.388;2023-02-15T13:09:45;22.47;;;19.83;;
10260;SDS011;5175;42.606;23.388;2023-02-15T13:12:16;22.70;;;20.30;;
10260;SDS011;5175;42.606;23.388;2023-02-15T13:14:46;21.40;;;19.00;;
10260;SDS011;5175;42.606;23.388;2023-02-15T13:17:17;23.80;;;19.83;;
10260;SDS011;5175;42.606;23.388;2023-02-15T13:19:50;21.97;;;18.83;;
10260;SDS011;5175;42.606;23.388;2023-02-15T13:22:22;22.37;;;19.97;;
10260;SDS011;5175;42.606;23.388;2023-02-15T13:24:54;22.97;;;18.87;;
10260;SDS011;5175;42.606;23.388;2023-02-15T13:27:24;20.93;;;18.73;;
10260;SDS011;5175;42.606;23.388;2023-02-15T13:29:58;24.37;;;19.53;;
10260;SDS011;5175;42.606;23.388;2023-02-15T13:32:30;23.00;;;17.67;;
10260;SDS011;5175;42.606;23.388;2023-02-15T13:35:02;23.10;;;19.73;;
10260;SDS011;5175;42.606;23.388;2023-02-15T13:37:56;22.87;;;19.30;;
10260;SDS011;5175;42.606;23.388;2023-02-15T13:40:33;22.40;;;19.00;;
10260;SDS011;5175;42.606;23.388;2023-02-15T13:43:05;23.13;;;19.73;;
10260;SDS011;5175;42.606;23.388;2023-02-15T13:45:50;23.73;;;21.07;;
10260;SDS011;5175;42.606;23.388;2023-02-15T13:48:36;22.03;;;19.73;;
10260;SDS011;5175;42.606;23.388;2023-02-15T13:51:10;21.10;;;18.80;;
10260;SDS011;5175;42.606;23.388;2023-02-15T13:53:58;23.33;;;19.50;;
10260;SDS011;5175;42.606;23.388;2023-02-15T13:56:40;25.00;;;19.63;;
10260;SDS011;5175;42.606;23.388;2023-02-15T14:02:19;22.40;;;19.03;;
10260;SDS011;5175;42.606;23.388;2023-02-15T14:05:09;21.37;;;18.63;;
10260;SDS011;5175;42.606;23.388;2023-02-15T14:07:53;22.17;;;19.77;;
10260;SDS011;5175;42.606;23.388;2023-02-15T14:13:32;25.27;;;20.10;;
10260;SDS011;5175;42.606;23.388;2023-02-15T14:16:14;22.97;;;19.83;;
10260;SDS011;5175;42.606;23.388;2023-02-15T14:18:47;21.60;;;18.90;;
10260;SDS011;5175;42.606;23.388;2023-02-15T14:21:19;22.50;;;19.13;;
10260;SDS011;5175;42.606;23.388;2023-02-15T14:23:57;22.47;;;19.90;;
10260;SDS011;5175;42.606;23.388;2023-02-15T14:26:38;23.23;;;19.73;;
10260;SDS011;5175;42.606;23.388;2023-02-15T14:29:16;25.00;;;20.70;;
10260;SDS011;5175;42.606;23.388;2023-02-15T14:31:54;24.60;;;20.63;;
10260;SDS011;5175;42.606;23.388;2023-02-15T14:34:24;23.70;;;20.57;;
10260;SDS011;5175;42.606;23.388;2023-02-15T14:36:56;22.80;;;19.83;;
10260;SDS011;5175;42.606;23.388;2023-02-15T14:39:29;23.80;;;20.30;;
10260;SDS011;5175;42.606;23.388;2023-02-15T14:42:25;23.07;;;20.57;;
10260;SDS011;5175;42.606;23.388;2023-02-15T14:45:01;23.43;;;20.83;;
10260;SDS011;5175;42.606;23.388;2023-02-15T14:47:33;25.17;;;21.37;;
10260;SDS011;5175;42.606;23.388;2023-02-15T14:53:32;23.60;;;20.50;;
10260;SDS011;5175;42.606;23.388;2023-02-15T14:56:25;24.37;;;21.50;;
10260;SDS011;5175;42.606;23.388;2023-02-15T15:01:50;25.20;;;21.30;;
10260;SDS011;5175;42.606;23.388;2023-02-15T15:04:22;24.57;;;21.10;;
10260;SDS011;5175;42.606;23.388;2023-02-15T15:07:01;24.33;;;21.53;;
10260;SDS011;5175;42.606;23.388;2023-02-15T15:09:34;24.87;;;21.27;;
10260;SDS011;5175;42.606;23.388;2023-02-15T15:12:13;26.73;;;22.03;;
10260;SDS011;5175;42.606;23.388;2023-02-15T15:14:46;25.20;;;21.60;;
10260;SDS011;5175;42.606;23.388;2023-02-15T15:17:51;27.27;;;22.13;;